Time;durP1;ratioP1;P1;durP2;ratioP2;P2;SDS_P1;SDS_P2;PMS_P1;PMS_P2;Temp;Humidity;BMP_temperature;BMP_pressure;BME280_temperature;BME280_humidity;BME280_pressure;Samples;Min_cycle;Max_cycle;Signal;HPM_P1;HPM_P2
2022/03/19 00:01:51;;;;;;;13.98;6.82;;;;;;;;;;5051613;28;20056;-69
2022/03/19 00:04:57;;;;;;;13.88;6.97;;;;;;;;;;5051595;28;20504;-68
2022/03/19 00:08:04;;;;;;;11.75;6.68;;;;;;;;;;5039411;28;20051;-69
2022/03/19 00:11:08;;;;;;;16.10;6.95;;;;;;;;;;5051036;28;20044;-68
2022/03/19 00:14:16;;;;;;;15.68;7.53;;;;;;;;;;5051243;28;20040;-68
2022/03/19 00:17:21;;;;;;;12.48;6.90;;;;;;;;;;5050692;28;20056;-68
2022/03/19 00:20:29;;;;;;;13.95;7.13;;;;;;;;;;5052029;28;20052;-68
2022/03/19 00:23:37;;;;;;;9.52;6.60;;;;;;;;;;5038875;28;20108;-68
2022/03/19 00:26:42;;;;;;;11.15;6.85;;;;;;;;;;5050771;28;20033;-68
2022/03/19 00:29:47;;;;;;;12.90;6.35;;;;;;;;;;5039268;28;20044;-68
2022/03/19 00:32:51;;;;;;;11.13;6.10;;;;;;;;;;5051606;28;20040;-68
2022/03/19 00:35:55;;;;;;;12.23;6.38;;;;;;;;;;5054885;28;20044;-67
2022/03/19 00:39:01;;;;;;;12.63;7.25;;;;;;;;;;5054976;28;20056;-68
2022/03/19 00:42:07;;;;;;;14.20;7.50;;;;;;;;;;5054999;28;20064;-68
2022/03/19 00:45:12;;;;;;;13.75;8.38;;;;;;;;;;5054654;28;20048;-68
2022/03/19 00:48:18;;;;;;;14.00;7.28;;;;;;;;;;5054337;28;20032;-68
2022/03/19 00:51:22;;;;;;;13.82;8.07;;;;;;;;;;5054770;28;20048;-69
2022/03/19 00:54:33;;;;;;;12.60;8.20;;;;;;;;;;5056113;28;20515;-68
2022/03/19 00:57:40;;;;;;;12.43;8.25;;;;;;;;;;5054370;28;20060;-68
2022/03/19 01:00:47;;;;;;;14.00;8.50;;;;;;;;;;5054850;28;20043;-68
2022/03/19 01:04:02;;;;;;;11.52;7.63;;;;;;;;;;5054149;28;20063;-68
2022/03/19 01:07:07;;;;;;;9.25;7.70;;;;;;;;;;5054398;28;20523;-69
2022/03/19 01:10:15;;;;;;;14.13;8.25;;;;;;;;;;5054971;28;20040;-69
2022/03/19 01:13:19;;;;;;;16.33;9.00;;;;;;;;;;5054044;28;20052;-68
2022/03/19 01:16:28;;;;;;;13.23;8.60;;;;;;;;;;5053836;28;20056;-68
2022/03/19 01:23:14;;;;;;;14.07;8.45;;;;;;;;;;5054786;28;20044;-68
2022/03/19 01:26:19;;;;;;;16.65;8.68;;;;;;;;;;5054957;28;20055;-68
2022/03/19 01:29:23;;;;;;;11.82;8.77;;;;;;;;;;5053658;28;20040;-68
2022/03/19 01:32:28;;;;;;;16.67;8.90;;;;;;;;;;5053684;28;20499;-68
2022/03/19 01:35:33;;;;;;;14.48;9.10;;;;;;;;;;5054766;28;20040;-67
2022/03/19 01:38:37;;;;;;;13.90;8.88;;;;;;;;;;5054696;28;20056;-67
2022/03/19 01:41:44;;;;;;;15.43;10.10;;;;;;;;;;5054226;28;20055;-67
2022/03/19 01:44:48;;;;;;;13.25;9.27;;;;;;;;;;5054743;28;20060;-68
2022/03/19 01:47:55;;;;;;;15.48;9.15;;;;;;;;;;5053662;28;20052;-67
2022/03/19 01:50:59;;;;;;;17.15;9.27;;;;;;;;;;5052953;28;20040;-68
2022/03/19 01:54:04;;;;;;;16.02;9.60;;;;;;;;;;5053034;28;20040;-68
2022/03/19 01:57:10;;;;;;;11.88;8.32;;;;;;;;;;5053619;28;20044;-68
2022/03/19 02:00:17;;;;;;;14.60;8.77;;;;;;;;;;5052922;28;20163;-68
2022/03/19 02:03:23;;;;;;;11.57;7.80;;;;;;;;;;5053300;28;20392;-68
2022/03/19 02:06:27;;;;;;;14.80;9.30;;;;;;;;;;5052938;28;20047;-68
2022/03/19 02:09:31;;;;;;;14.75;8.57;;;;;;;;;;5053705;28;20044;-68
2022/03/19 02:12:37;;;;;;;12.07;9.00;;;;;;;;;;5053505;28;20043;-67
2022/03/19 02:15:42;;;;;;;10.60;8.70;;;;;;;;;;5052919;28;20048;-68
2022/03/19 02:18:47;;;;;;;13.10;9.25;;;;;;;;;;5053090;28;20075;-67
2022/03/19 02:21:52;;;;;;;12.50;9.73;;;;;;;;;;5053236;28;20044;-68
2022/03/19 02:28:20;;;;;;;12.50;9.63;;;;;;;;;;5053360;28;20039;-68
2022/03/19 02:31:25;;;;;;;13.88;8.90;;;;;;;;;;5053475;28;20055;-68
2022/03/19 02:34:29;;;;;;;13.95;9.52;;;;;;;;;;5053630;28;20063;-68
2022/03/19 02:37:38;;;;;;;11.80;8.93;;;;;;;;;;5053233;28;20044;-69
2022/03/19 02:40:43;;;;;;;11.68;8.82;;;;;;;;;;5053904;28;20048;-68
2022/03/19 02:43:48;;;;;;;10.27;8.30;;;;;;;;;;5053633;28;20048;-67
2022/03/19 02:46:54;;;;;;;8.70;7.47;;;;;;;;;;5053309;28;20048;-67
2022/03/19 02:49:58;;;;;;;8.48;7.28;;;;;;;;;;5052656;28;20045;-67
2022/03/19 02:53:05;;;;;;;9.98;7.07;;;;;;;;;;5051559;28;20044;-67
2022/03/19 02:56:10;;;;;;;9.25;7.05;;;;;;;;;;5051558;28;20052;-68
2022/03/19 02:59:19;;;;;;;7.90;6.80;;;;;;;;;;5050454;28;20045;-68
2022/03/19 03:02:23;;;;;;;11.25;7.80;;;;;;;;;;5052566;28;20036;-68
2022/03/19 03:05:28;;;;;;;13.68;8.23;;;;;;;;;;5052720;28;20043;-68
2022/03/19 03:08:32;;;;;;;11.90;9.02;;;;;;;;;;5052780;28;20044;-68
2022/03/19 03:11:36;;;;;;;11.05;8.82;;;;;;;;;;5053011;28;20051;-69
2022/03/19 03:14:40;;;;;;;10.88;8.63;;;;;;;;;;5051521;28;20472;-69
2022/03/19 03:17:45;;;;;;;12.73;9.48;;;;;;;;;;5051833;28;20060;-69
2022/03/19 03:20:50;;;;;;;13.93;8.90;;;;;;;;;;5052226;28;20523;-67
2022/03/19 03:23:55;;;;;;;17.77;10.15;;;;;;;;;;5052533;28;20400;-68
2022/03/19 03:27:00;;;;;;;11.90;9.27;;;;;;;;;;5052341;28;20491;-68
2022/03/19 03:30:04;;;;;;;13.65;9.02;;;;;;;;;;5051389;28;20405;-68
2022/03/19 03:33:08;;;;;;;15.40;10.05;;;;;;;;;;5052478;28;20052;-68
2022/03/19 03:36:14;;;;;;;14.68;9.82;;;;;;;;;;5052043;28;20389;-68
2022/03/19 03:39:20;;;;;;;17.10;10.18;;;;;;;;;;5039320;28;20048;-68
2022/03/19 03:42:24;;;;;;;17.38;10.13;;;;;;;;;;5051952;28;20044;-69
2022/03/19 03:45:30;;;;;;;13.35;9.85;;;;;;;;;;5051556;28;20044;-69
2022/03/19 03:48:38;;;;;;;20.83;10.85;;;;;;;;;;5052096;28;20381;-69
2022/03/19 03:51:43;;;;;;;13.75;9.70;;;;;;;;;;5051170;28;20195;-68
2022/03/19 03:54:47;;;;;;;16.13;10.55;;;;;;;;;;5051930;28;20048;-68
2022/03/19 03:57:52;;;;;;;15.60;9.85;;;;;;;;;;5051748;28;20052;-68
2022/03/19 04:00:58;;;;;;;15.48;10.13;;;;;;;;;;5052091;28;20044;-68
2022/03/19 04:04:04;;;;;;;13.32;9.40;;;;;;;;;;5051485;28;20051;-68
2022/03/19 04:07:09;;;;;;;16.02;9.73;;;;;;;;;;5050881;28;20039;-68
2022/03/19 04:10:17;;;;;;;16.70;10.10;;;;;;;;;;5051520;28;20048;-68
2022/03/19 04:13:21;;;;;;;15.10;10.10;;;;;;;;;;5051943;28;20495;-68
2022/03/19 04:16:27;;;;;;;15.30;10.68;;;;;;;;;;5050884;28;20063;-68
2022/03/19 04:19:32;;;;;;;16.23;9.05;;;;;;;;;;5051052;28;20068;-68
2022/03/19 04:22:37;;;;;;;14.50;10.35;;;;;;;;;;5051706;28;20036;-67
2022/03/19 04:25:46;;;;;;;12.70;9.05;;;;;;;;;;5051962;28;20432;-67
2022/03/19 04:28:50;;;;;;;15.80;10.48;;;;;;;;;;5051382;28;20044;-68
2022/03/19 04:31:55;;;;;;;16.55;10.00;;;;;;;;;;5050430;28;20056;-67
2022/03/19 04:36:29;;;;;;;14.00;10.77;;;;;;;;;;5049781;28;20366;-67
2022/03/19 04:38:24;;;;;;;16.27;10.52;;;;;;;;;;5050764;28;20056;-68
2022/03/19 04:41:29;;;;;;;11.98;9.07;;;;;;;;;;5049906;28;20036;-68
2022/03/19 04:44:34;;;;;;;12.02;8.65;;;;;;;;;;5051509;28;20052;-69
2022/03/19 04:47:38;;;;;;;13.35;10.02;;;;;;;;;;5050127;28;20040;-68
2022/03/19 04:50:46;;;;;;;13.60;9.35;;;;;;;;;;5051032;28;20040;-68
2022/03/19 04:53:52;;;;;;;13.43;9.48;;;;;;;;;;5051034;28;20044;-68
2022/03/19 04:56:57;;;;;;;13.30;9.35;;;;;;;;;;5051089;28;20385;-68
2022/03/19 05:00:02;;;;;;;11.93;9.10;;;;;;;;;;5051024;28;20073;-68
2022/03/19 05:03:07;;;;;;;16.88;9.25;;;;;;;;;;5051343;28;20044;-68
2022/03/19 05:06:11;;;;;;;17.70;9.55;;;;;;;;;;5049643;28;20047;-68
2022/03/19 05:12:43;;;;;;;13.90;9.23;;;;;;;;;;5050708;28;20056;-68
2022/03/19 05:15:47;;;;;;;12.82;8.75;;;;;;;;;;5050073;28;20048;-68
2022/03/19 05:18:51;;;;;;;12.50;8.45;;;;;;;;;;5050340;28;20421;-68
2022/03/19 05:21:56;;;;;;;13.45;8.15;;;;;;;;;;5052770;28;20048;-68
2022/03/19 05:25:01;;;;;;;12.57;8.63;;;;;;;;;;5054295;28;20051;-68
2022/03/19 05:28:08;;;;;;;11.93;8.77;;;;;;;;;;5054032;28;20044;-68
2022/03/19 05:31:13;;;;;;;12.93;8.85;;;;;;;;;;5054407;28;20499;-68
2022/03/19 05:34:30;;;;;;;14.27;9.38;;;;;;;;;;5054240;28;20048;-68
2022/03/19 05:37:34;;;;;;;16.00;9.32;;;;;;;;;;5054395;28;20056;-68
2022/03/19 05:40:39;;;;;;;12.73;9.05;;;;;;;;;;5042388;28;20047;-68
2022/03/19 05:43:43;;;;;;;14.13;8.68;;;;;;;;;;5054397;28;20052;-68
2022/03/19 05:46:52;;;;;;;14.35;9.23;;;;;;;;;;5054595;28;20511;-68
2022/03/19 05:49:56;;;;;;;12.98;8.05;;;;;;;;;;5054204;28;20068;-69
2022/03/19 05:53:00;;;;;;;14.05;8.32;;;;;;;;;;5054249;28;20048;-68
2022/03/19 05:56:04;;;;;;;12.93;8.13;;;;;;;;;;5052903;28;20566;-68
2022/03/19 05:59:09;;;;;;;13.23;7.70;;;;;;;;;;5053934;28;20516;-67
2022/03/19 06:02:17;;;;;;;10.77;7.95;;;;;;;;;;5054689;28;20052;-67
2022/03/19 06:05:23;;;;;;;11.40;7.75;;;;;;;;;;5054658;28;20056;-67
2022/03/19 06:08:29;;;;;;;15.68;7.22;;;;;;;;;;5054677;28;20131;-67
2022/03/19 06:11:36;;;;;;;13.13;8.13;;;;;;;;;;5055436;28;20409;-68
2022/03/19 06:14:42;;;;;;;13.77;8.70;;;;;;;;;;5055585;28;20048;-68
2022/03/19 06:17:51;;;;;;;14.18;8.90;;;;;;;;;;5054756;28;20397;-67
2022/03/19 06:20:57;;;;;;;22.65;10.52;;;;;;;;;;5055721;28;20060;-68
2022/03/19 06:24:03;;;;;;;16.33;9.60;;;;;;;;;;5055961;28;20052;-68
2022/03/19 06:27:13;;;;;;;18.83;12.00;;;;;;;;;;5055104;28;20048;-68
2022/03/19 06:30:18;;;;;;;17.90;10.07;;;;;;;;;;5054668;28;20042;-67
2022/03/19 06:33:24;;;;;;;15.30;10.02;;;;;;;;;;5053734;28;20060;-66
2022/03/19 06:40:17;;;;;;;14.18;9.88;;;;;;;;;;5041213;28;20052;-66
2022/03/19 06:43:24;;;;;;;18.52;11.23;;;;;;;;;;5052575;28;20040;-66
2022/03/19 06:46:28;;;;;;;19.52;11.63;;;;;;;;;;5052547;28;20044;-66
2022/03/19 06:49:37;;;;;;;17.40;11.65;;;;;;;;;;5053021;28;20040;-66
2022/03/19 06:52:47;;;;;;;24.08;11.07;;;;;;;;;;5041033;28;20048;-66
2022/03/19 06:55:55;;;;;;;16.65;10.65;;;;;;;;;;5052907;28;20052;-66
2022/03/19 06:59:03;;;;;;;17.20;9.95;;;;;;;;;;5052743;28;20075;-67
2022/03/19 07:02:16;;;;;;;14.60;8.85;;;;;;;;;;5052729;28;20040;-66
2022/03/19 07:05:23;;;;;;;13.32;8.10;;;;;;;;;;5053001;28;20044;-65
2022/03/19 07:08:29;;;;;;;12.90;8.25;;;;;;;;;;5052449;28;20047;-66
2022/03/19 07:11:38;;;;;;;11.40;8.30;;;;;;;;;;5040193;28;20052;-66
2022/03/19 07:14:45;;;;;;;14.20;8.10;;;;;;;;;;5051143;28;20064;-66
2022/03/19 07:17:50;;;;;;;16.88;8.82;;;;;;;;;;5053033;28;20068;-64
2022/03/19 07:20:55;;;;;;;20.17;8.73;;;;;;;;;;5052148;28;20413;-66
2022/03/19 07:23:59;;;;;;;18.92;9.52;;;;;;;;;;5052253;28;20040;-64
2022/03/19 07:27:38;;;;;;;19.25;8.75;;;;;;;;;;5052658;28;20048;-66
2022/03/19 07:30:47;;;;;;;14.93;8.32;;;;;;;;;;5052535;28;20119;-66
2022/03/19 07:33:51;;;;;;;17.15;9.02;;;;;;;;;;5052143;28;20043;-65
2022/03/19 07:36:56;;;;;;;10.77;8.20;;;;;;;;;;5051725;28;20112;-67
2022/03/19 07:40:01;;;;;;;12.65;8.68;;;;;;;;;;5051488;28;20401;-67
2022/03/19 07:43:11;;;;;;;12.55;8.63;;;;;;;;;;5051526;28;20119;-66
2022/03/19 07:46:16;;;;;;;14.55;8.95;;;;;;;;;;5051318;28;20060;-63
2022/03/19 07:49:20;;;;;;;13.00;8.02;;;;;;;;;;5050146;28;20036;-65
2022/03/19 07:52:35;;;;;;;18.02;8.40;;;;;;;;;;5051458;28;20527;-65
2022/03/19 07:55:40;;;;;;;13.15;8.35;;;;;;;;;;5050441;28;20196;-65
2022/03/19 07:58:50;;;;;;;36.15;9.48;;;;;;;;;;5051116;28;20052;-64
2022/03/19 08:01:57;;;;;;;17.98;8.48;;;;;;;;;;5050808;28;20056;-65
2022/03/19 08:05:07;;;;;;;12.30;8.18;;;;;;;;;;5051368;28;20052;-64
2022/03/19 08:08:12;;;;;;;15.23;8.60;;;;;;;;;;5051119;28;20044;-65
2022/03/19 08:11:17;;;;;;;14.57;7.80;;;;;;;;;;5050620;28;20052;-65
2022/03/19 08:14:22;;;;;;;12.32;8.07;;;;;;;;;;5050144;28;20052;-66
2022/03/19 08:17:28;;;;;;;14.13;7.85;;;;;;;;;;5051648;28;20084;-65
2022/03/19 08:20:35;;;;;;;17.65;7.78;;;;;;;;;;5051098;28;20064;-65
2022/03/19 08:23:40;;;;;;;17.85;7.93;;;;;;;;;;5050041;28;20056;-64
2022/03/19 08:26:45;;;;;;;20.05;8.88;;;;;;;;;;5050965;28;20062;-65
2022/03/19 08:29:50;;;;;;;19.45;9.00;;;;;;;;;;5050307;28;20040;-65
2022/03/19 08:32:55;;;;;;;16.20;8.55;;;;;;;;;;5050618;28;20217;-64
2022/03/19 08:35:59;;;;;;;15.40;8.30;;;;;;;;;;5051199;28;20044;-65
2022/03/19 08:42:29;;;;;;;19.27;8.30;;;;;;;;;;5050990;28;20064;-66
2022/03/19 08:45:33;;;;;;;14.10;8.48;;;;;;;;;;5049683;28;20040;-63
2022/03/19 08:48:38;;;;;;;15.38;8.65;;;;;;;;;;5050438;28;20052;-64
2022/03/19 08:51:44;;;;;;;12.52;8.30;;;;;;;;;;5050711;28;20195;-68
2022/03/19 08:54:48;;;;;;;25.73;9.13;;;;;;;;;;5050972;28;20063;-65
2022/03/19 08:57:52;;;;;;;21.02;9.80;;;;;;;;;;5054781;28;20056;-66
2022/03/19 09:00:57;;;;;;;15.82;8.32;;;;;;;;;;5053949;28;20124;-64
2022/03/19 09:04:01;;;;;;;16.55;8.60;;;;;;;;;;5054626;28;20040;-67
2022/03/19 09:07:06;;;;;;;13.40;8.18;;;;;;;;;;5054307;28;20150;-64
2022/03/19 09:10:10;;;;;;;14.85;8.15;;;;;;;;;;5054594;28;20214;-66
2022/03/19 09:13:18;;;;;;;16.02;8.55;;;;;;;;;;5054339;28;20199;-64
2022/03/19 09:16:23;;;;;;;15.77;8.18;;;;;;;;;;5054033;28;20052;-68
2022/03/19 09:19:28;;;;;;;13.68;8.05;;;;;;;;;;5054155;28;20428;-67
2022/03/19 09:22:32;;;;;;;32.03;10.18;;;;;;;;;;5041972;28;20044;-65
2022/03/19 09:25:37;;;;;;;15.85;8.68;;;;;;;;;;5054208;28;20044;-66
2022/03/19 09:28:41;;;;;;;16.17;9.98;;;;;;;;;;5053938;28;20040;-65
2022/03/19 09:31:46;;;;;;;21.98;11.60;;;;;;;;;;5053817;28;20507;-65
2022/03/19 09:34:52;;;;;;;20.40;8.57;;;;;;;;;;5053796;28;20048;-65
2022/03/19 09:37:56;;;;;;;16.58;9.05;;;;;;;;;;5054150;28;20051;-66
2022/03/19 09:41:00;;;;;;;19.77;8.82;;;;;;;;;;5053865;28;20052;-65
2022/03/19 09:44:06;;;;;;;15.50;9.00;;;;;;;;;;5052894;28;20048;-67
2022/03/19 09:47:17;;;;;;;16.42;9.18;;;;;;;;;;5054004;28;20052;-66
2022/03/19 09:50:23;;;;;;;20.60;8.80;;;;;;;;;;5030640;28;20056;-67
2022/03/19 09:53:30;;;;;;;18.35;9.13;;;;;;;;;;5053806;28;20424;-68
2022/03/19 09:56:36;;;;;;;17.35;9.93;;;;;;;;;;5053957;28;20048;-66
2022/03/19 09:59:40;;;;;;;25.73;8.98;;;;;;;;;;5053134;28;20128;-65
2022/03/19 10:02:54;;;;;;;17.90;9.52;;;;;;;;;;5052673;28;20442;-66
2022/03/19 10:09:24;;;;;;;14.57;8.98;;;;;;;;;;5053045;28;20044;-64
2022/03/19 10:12:30;;;;;;;22.13;9.90;;;;;;;;;;5053243;28;20044;-65
2022/03/19 10:15:41;;;;;;;17.92;9.73;;;;;;;;;;5052150;28;20048;-66
2022/03/19 10:18:54;;;;;;;20.60;9.25;;;;;;;;;;5053038;28;20055;-66
2022/03/19 10:22:11;;;;;;;22.70;10.50;;;;;;;;;;5053048;28;20044;-67
2022/03/19 10:25:19;;;;;;;26.05;10.90;;;;;;;;;;5053717;28;20048;-67
2022/03/19 10:28:34;;;;;;;16.90;10.95;;;;;;;;;;5052575;28;20499;-66
2022/03/19 10:31:46;;;;;;;19.25;10.40;;;;;;;;;;5053131;28;20044;-67
2022/03/19 10:34:51;;;;;;;18.27;9.82;;;;;;;;;;5052267;28;20040;-67
2022/03/19 10:37:56;;;;;;;15.98;9.95;;;;;;;;;;5052740;28;20056;-67
2022/03/19 10:41:03;;;;;;;22.20;9.95;;;;;;;;;;5051320;28;20056;-69
2022/03/19 10:44:11;;;;;;;20.00;9.10;;;;;;;;;;5052011;28;20555;-66
2022/03/19 10:47:21;;;;;;;17.40;11.02;;;;;;;;;;5051405;28;20055;-67
2022/03/19 10:50:25;;;;;;;20.20;9.45;;;;;;;;;;5052132;28;20527;-66
2022/03/19 10:53:29;;;;;;;18.70;8.80;;;;;;;;;;5051815;28;20056;-67
2022/03/19 10:56:34;;;;;;;13.80;9.18;;;;;;;;;;5052184;28;20385;-66
2022/03/19 10:59:39;;;;;;;17.63;9.60;;;;;;;;;;5052449;28;20052;-66
2022/03/19 11:02:45;;;;;;;16.90;9.40;;;;;;;;;;5052051;28;20044;-67
2022/03/19 11:05:57;;;;;;;14.85;9.30;;;;;;;;;;5052417;28;20496;-67
2022/03/19 11:09:10;;;;;;;23.08;10.00;;;;;;;;;;5051987;28;20047;-67
2022/03/19 11:12:21;;;;;;;28.15;16.40;;;;;;;;;;5051873;28;20128;-67
2022/03/19 11:15:26;;;;;;;19.40;12.20;;;;;;;;;;5051679;28;20115;-67
2022/03/19 11:18:30;;;;;;;16.67;9.07;;;;;;;;;;5051081;28;20076;-65
2022/03/19 11:21:36;;;;;;;26.80;9.93;;;;;;;;;;5051934;28;20056;-66
2022/03/19 11:25:04;;;;;;;16.35;10.68;;;;;;;;;;5039053;28;20524;-65
2022/03/19 11:28:10;;;;;;;20.77;9.27;;;;;;;;;;5050724;28;20056;-68
2022/03/19 11:31:16;;;;;;;16.77;9.75;;;;;;;;;;5051849;28;20430;-67
2022/03/19 11:34:21;;;;;;;15.45;8.40;;;;;;;;;;5051808;28;20044;-67
2022/03/19 11:37:46;;;;;;;16.75;8.13;;;;;;;;;;5052210;28;20052;-67
2022/03/19 11:40:56;;;;;;;12.52;8.25;;;;;;;;;;5051648;28;20052;-67
2022/03/19 11:44:23;;;;;;;20.00;8.38;;;;;;;;;;5051213;28;20044;-67
2022/03/19 11:47:34;;;;;;;17.75;8.57;;;;;;;;;;5051461;28;20040;-67
2022/03/19 11:50:42;;;;;;;16.92;8.48;;;;;;;;;;5051614;28;20048;-67
2022/03/19 11:54:03;;;;;;;23.90;8.48;;;;;;;;;;5050811;28;20056;-67
2022/03/19 11:57:09;;;;;;;21.90;9.35;;;;;;;;;;5051462;28;20040;-67
2022/03/19 12:00:15;;;;;;;13.40;8.18;;;;;;;;;;5050322;28;20053;-67
2022/03/19 12:03:25;;;;;;;15.02;8.27;;;;;;;;;;5050263;28;20044;-67
2022/03/19 12:06:39;;;;;;;19.48;7.88;;;;;;;;;;5050481;28;20051;-67
2022/03/19 12:09:51;;;;;;;15.43;8.68;;;;;;;;;;5051386;28;20064;-67
2022/03/19 12:12:58;;;;;;;16.23;8.52;;;;;;;;;;5051137;28;20044;-67
2022/03/19 12:16:04;;;;;;;12.88;8.65;;;;;;;;;;5050742;28;20052;-67
2022/03/19 12:19:11;;;;;;;16.02;9.07;;;;;;;;;;5051159;28;20056;-67
2022/03/19 12:22:31;;;;;;;18.88;8.63;;;;;;;;;;5027436;28;20044;-66
2022/03/19 12:25:40;;;;;;;14.98;8.90;;;;;;;;;;5051096;28;20048;-67
2022/03/19 12:28:46;;;;;;;13.57;8.55;;;;;;;;;;5050079;28;20049;-66
2022/03/19 12:31:51;;;;;;;11.70;7.07;;;;;;;;;;5057392;28;20052;-66
2022/03/19 12:34:59;;;;;;;17.70;8.98;;;;;;;;;;5056610;28;20409;-67
2022/03/19 12:38:03;;;;;;;20.73;11.85;;;;;;;;;;5057725;28;20399;-66
2022/03/19 12:41:33;;;;;;;17.15;10.02;;;;;;;;;;5056780;28;20056;-66
2022/03/19 12:44:41;;;;;;;18.83;9.90;;;;;;;;;;5057493;28;20036;-67
2022/03/19 12:47:54;;;;;;;13.63;7.80;;;;;;;;;;5057354;28;20043;-66
2022/03/19 12:50:59;;;;;;;19.98;8.95;;;;;;;;;;5057268;28;20044;-67
2022/03/19 12:54:36;;;;;;;21.10;9.60;;;;;;;;;;5057568;28;20040;-67
2022/03/19 12:57:42;;;;;;;17.85;9.50;;;;;;;;;;5051097;28;20052;-67
2022/03/19 13:00:56;;;;;;;13.20;9.25;;;;;;;;;;5057677;28;20051;-65
2022/03/19 13:04:01;;;;;;;13.95;9.25;;;;;;;;;;5057453;28;20503;-66
2022/03/19 13:07:06;;;;;;;16.27;10.10;;;;;;;;;;5056797;28;20051;-68
2022/03/19 13:10:17;;;;;;;15.05;9.48;;;;;;;;;;5057584;28;20048;-66
2022/03/19 13:13:22;;;;;;;15.68;10.35;;;;;;;;;;5057470;28;20040;-65
2022/03/19 13:16:31;;;;;;;20.17;9.80;;;;;;;;;;5056523;28;20381;-65
2022/03/19 13:19:38;;;;;;;18.88;11.00;;;;;;;;;;5057248;28;20056;-64
2022/03/19 13:22:44;;;;;;;14.35;8.95;;;;;;;;;;5045192;28;20048;-66
2022/03/19 13:25:53;;;;;;;17.85;9.80;;;;;;;;;;5056620;28;20068;-65
2022/03/19 13:29:07;;;;;;;18.98;11.43;;;;;;;;;;5057103;28;20051;-64
2022/03/19 13:32:13;;;;;;;18.35;10.05;;;;;;;;;;5057418;28;20049;-65
2022/03/19 13:35:35;;;;;;;23.10;10.25;;;;;;;;;;5057424;28;20036;-63
2022/03/19 13:38:40;;;;;;;20.25;8.95;;;;;;;;;;5055965;28;20555;-65
2022/03/19 13:41:45;;;;;;;19.20;9.35;;;;;;;;;;5042866;28;20511;-66
2022/03/19 13:45:10;;;;;;;26.88;12.00;;;;;;;;;;5053801;28;20317;-65
2022/03/19 13:48:23;;;;;;;19.63;11.18;;;;;;;;;;5053063;28;20515;-64
2022/03/19 13:51:51;;;;;;;17.65;9.65;;;;;;;;;;5053656;28;20046;-66
2022/03/19 13:54:57;;;;;;;17.13;10.23;;;;;;;;;;5052311;28;20048;-66
2022/03/19 13:58:05;;;;;;;17.17;9.30;;;;;;;;;;5053647;28;20517;-66
2022/03/19 14:01:13;;;;;;;19.88;9.75;;;;;;;;;;5054358;28;20526;-69
2022/03/19 14:04:18;;;;;;;22.75;11.90;;;;;;;;;;5054697;28;20048;-69
2022/03/19 14:07:31;;;;;;;19.42;10.50;;;;;;;;;;5054636;28;20044;-69
2022/03/19 14:10:40;;;;;;;16.48;9.23;;;;;;;;;;5055424;28;20069;-69
2022/03/19 14:13:45;;;;;;;22.38;14.75;;;;;;;;;;5055044;28;20048;-69
2022/03/19 14:16:59;;;;;;;39.63;19.88;;;;;;;;;;5014842;28;20061;-69
2022/03/19 14:20:04;;;;;;;35.10;20.77;;;;;;;;;;5014273;28;20135;-69
2022/03/19 14:23:08;;;;;;;35.95;17.10;;;;;;;;;;5016260;28;20053;-69
2022/03/19 14:26:15;;;;;;;29.60;17.52;;;;;;;;;;5015902;28;20053;-68
2022/03/19 14:29:19;;;;;;;27.35;13.60;;;;;;;;;;5013883;28;20053;-69
2022/03/19 14:32:26;;;;;;;18.20;9.60;;;;;;;;;;5015635;28;20052;-69
2022/03/19 14:35:49;;;;;;;16.30;9.15;;;;;;;;;;5016406;28;20053;-68
2022/03/19 14:38:54;;;;;;;11.40;8.07;;;;;;;;;;5015958;28;20052;-69
2022/03/19 14:42:00;;;;;;;16.30;8.23;;;;;;;;;;5015015;28;20048;-68
2022/03/19 14:45:06;;;;;;;12.15;7.95;;;;;;;;;;5016107;28;20041;-68
2022/03/19 14:48:11;;;;;;;16.05;7.95;;;;;;;;;;5016502;28;20041;-69
2022/03/19 14:51:15;;;;;;;18.80;9.50;;;;;;;;;;5015242;28;20429;-68
2022/03/19 14:54:20;;;;;;;13.90;7.68;;;;;;;;;;5013171;28;20049;-68
2022/03/19 14:57:25;;;;;;;12.32;7.80;;;;;;;;;;5014355;28;20044;-69
2022/03/19 15:00:30;;;;;;;21.85;9.35;;;;;;;;;;5012832;28;20060;-68
2022/03/19 15:03:35;;;;;;;16.67;10.50;;;;;;;;;;5014484;28;20049;-68
2022/03/19 15:06:41;;;;;;;15.10;9.32;;;;;;;;;;5014952;28;20044;-68
2022/03/19 15:09:45;;;;;;;20.70;10.63;;;;;;;;;;5015715;28;20045;-69
2022/03/19 15:12:50;;;;;;;15.20;8.68;;;;;;;;;;5015337;28;20056;-68
2022/03/19 15:15:58;;;;;;;18.02;7.95;;;;;;;;;;5043340;28;20064;-69
2022/03/19 15:19:03;;;;;;;17.15;10.00;;;;;;;;;;5055567;28;20056;-68
2022/03/19 15:22:09;;;;;;;22.33;8.27;;;;;;;;;;5054977;28;20055;-68
2022/03/19 15:25:15;;;;;;;11.77;7.45;;;;;;;;;;5053987;28;20389;-68
2022/03/19 15:28:21;;;;;;;16.25;7.70;;;;;;;;;;5053991;28;20047;-69
2022/03/19 15:31:26;;;;;;;14.20;8.30;;;;;;;;;;5053633;28;20043;-69
2022/03/19 15:34:30;;;;;;;17.63;9.60;;;;;;;;;;5053508;28;20044;-68
2022/03/19 15:37:39;;;;;;;21.23;9.60;;;;;;;;;;5052931;28;20144;-68
2022/03/19 15:40:44;;;;;;;20.40;7.97;;;;;;;;;;5053330;28;20063;-68
2022/03/19 15:43:49;;;;;;;17.75;8.50;;;;;;;;;;5053714;28;20048;-68
2022/03/19 15:46:55;;;;;;;17.80;8.38;;;;;;;;;;5053062;28;20044;-68
2022/03/19 15:49:59;;;;;;;23.30;7.50;;;;;;;;;;5054075;28;20072;-67
2022/03/19 15:53:03;;;;;;;16.48;7.07;;;;;;;;;;5053368;28;20318;-68
2022/03/19 15:56:09;;;;;;;18.67;8.75;;;;;;;;;;5052231;28;20401;-68
2022/03/19 15:59:14;;;;;;;19.98;8.77;;;;;;;;;;5051381;28;20048;-68
2022/03/19 16:02:18;;;;;;;18.00;8.88;;;;;;;;;;5052258;28;20047;-68
2022/03/19 16:05:22;;;;;;;22.10;8.05;;;;;;;;;;5050739;28;20385;-69
2022/03/19 16:08:26;;;;;;;16.50;7.50;;;;;;;;;;5051223;28;20048;-69
2022/03/19 16:11:31;;;;;;;15.43;7.65;;;;;;;;;;5050954;28;20044;-69
2022/03/19 16:14:35;;;;;;;29.40;13.57;;;;;;;;;;5051513;28;20408;-68
2022/03/19 16:17:40;;;;;;;28.63;12.98;;;;;;;;;;5039407;28;20060;-69
2022/03/19 16:20:44;;;;;;;54.58;28.27;;;;;;;;;;5039255;28;20064;-68
2022/03/19 16:23:49;;;;;;;22.23;10.60;;;;;;;;;;5051520;28;20064;-70
2022/03/19 16:26:56;;;;;;;20.73;9.25;;;;;;;;;;5050791;28;20060;-69
2022/03/19 16:30:03;;;;;;;20.88;8.43;;;;;;;;;;5049824;28;20211;-69
2022/03/19 16:33:13;;;;;;;17.80;9.77;;;;;;;;;;5050699;28;20048;-71
2022/03/19 16:36:18;;;;;;;30.23;11.77;;;;;;;;;;5051268;28;20044;-68
2022/03/19 16:39:23;;;;;;;14.50;8.10;;;;;;;;;;5049882;28;20056;-68
2022/03/19 16:42:28;;;;;;;16.73;8.95;;;;;;;;;;5051463;28;20128;-68
2022/03/19 16:45:32;;;;;;;14.98;8.75;;;;;;;;;;5051038;28;20052;-67
2022/03/19 16:48:38;;;;;;;17.20;8.50;;;;;;;;;;5050968;28;20512;-68
2022/03/19 16:51:42;;;;;;;16.90;8.48;;;;;;;;;;5051633;28;20040;-69
2022/03/19 16:54:47;;;;;;;13.52;8.57;;;;;;;;;;5051175;28;20044;-67
2022/03/19 16:57:52;;;;;;;18.85;10.02;;;;;;;;;;5051485;28;20044;-69
2022/03/19 17:00:56;;;;;;;27.13;18.60;;;;;;;;;;5050188;28;20060;-68
2022/03/19 17:04:00;;;;;;;20.08;12.85;;;;;;;;;;5050220;28;20044;-68
2022/03/19 17:07:05;;;;;;;19.80;9.10;;;;;;;;;;5051033;28;20056;-69
2022/03/19 17:10:10;;;;;;;17.30;9.32;;;;;;;;;;5049780;28;20048;-68
2022/03/19 17:13:15;;;;;;;18.45;11.38;;;;;;;;;;5050360;28;20055;-68
2022/03/19 17:16:19;;;;;;;24.83;11.88;;;;;;;;;;5049911;28;20061;-69
2022/03/19 17:19:24;;;;;;;27.92;15.25;;;;;;;;;;5054147;28;20052;-68
2022/03/19 17:22:31;;;;;;;56.13;30.33;;;;;;;;;;5054256;28;20047;-67
2022/03/19 17:25:39;;;;;;;22.45;12.32;;;;;;;;;;5053029;28;20060;-68
2022/03/19 17:28:43;;;;;;;22.05;11.82;;;;;;;;;;5053579;28;20048;-68
2022/03/19 17:31:48;;;;;;;31.05;16.13;;;;;;;;;;5052024;28;20052;-67
2022/03/19 17:34:52;;;;;;;20.65;12.18;;;;;;;;;;5052342;28;20520;-68
2022/03/19 17:37:56;;;;;;;25.67;12.85;;;;;;;;;;5052172;28;20040;-68
2022/03/19 17:41:01;;;;;;;21.40;11.90;;;;;;;;;;5051050;28;20056;-68
2022/03/19 17:44:05;;;;;;;18.90;10.23;;;;;;;;;;5052967;28;20452;-68
2022/03/19 17:47:12;;;;;;;21.98;11.80;;;;;;;;;;5053456;28;20392;-68
2022/03/19 17:50:16;;;;;;;20.10;10.15;;;;;;;;;;5053505;28;20515;-69
2022/03/19 17:53:20;;;;;;;29.85;11.65;;;;;;;;;;5053393;28;20055;-67
2022/03/19 17:56:25;;;;;;;24.50;11.48;;;;;;;;;;5052500;28;20044;-68
2022/03/19 17:59:29;;;;;;;26.77;10.38;;;;;;;;;;5029798;28;20056;-68
2022/03/19 18:02:35;;;;;;;32.50;16.58;;;;;;;;;;5052183;28;20497;-68
2022/03/19 18:05:39;;;;;;;31.20;14.93;;;;;;;;;;5052173;28;20158;-68
2022/03/19 18:08:44;;;;;;;29.42;18.17;;;;;;;;;;5053226;28;20060;-69
2022/03/19 18:11:48;;;;;;;19.50;12.30;;;;;;;;;;5052625;28;20303;-69
2022/03/19 18:14:53;;;;;;;20.33;11.63;;;;;;;;;;5052678;28;20405;-69
2022/03/19 18:17:58;;;;;;;22.98;12.02;;;;;;;;;;5052727;28;20492;-69
2022/03/19 18:21:03;;;;;;;17.92;9.23;;;;;;;;;;5052913;28;20052;-69
2022/03/19 18:24:07;;;;;;;23.15;10.43;;;;;;;;;;5052694;28;20040;-67
2022/03/19 18:27:12;;;;;;;17.55;10.45;;;;;;;;;;5052404;28;20091;-69
2022/03/19 18:30:18;;;;;;;16.88;10.02;;;;;;;;;;5052843;28;20048;-68
2022/03/19 18:33:22;;;;;;;19.90;9.77;;;;;;;;;;5052108;28;20404;-67
2022/03/19 18:36:26;;;;;;;21.10;11.10;;;;;;;;;;5052254;28;20048;-69
2022/03/19 18:39:32;;;;;;;24.42;13.45;;;;;;;;;;5052495;28;20060;-67